Terminal Aerodrome Forecast
Issued by NWS

Current Version | Previous Version | Text Only | Print | Product List | Glossary On
Versions: 1 2 3 4 5 6 7 8 9 10 11 12 13
365
FTUS46 KHNX 252325
TAFMCE
TAF
KMCE 252325Z 2600/2624 12006KT P6SM OVC050
      TEMPO 2600/2602 -SHRA OVC030
     FM260200 32008KT P6SM SCT025 BKN040
     FM261200 31006KT P6SM SCT050 BKN100=

USA.gov is the U.S. government's official web portal to all federal, state and local government web resources and services.